Create Tblcommutelog Verified Points Advance Search
| # | Trip ID | Id Commuter | Trip Date | Trip Num | Current Lat | Current Lng | Delta Distance | Current Time | Activity | Activity Confidence | Current Speed | |
|---|---|---|---|---|---|---|---|---|---|---|---|---|
| 71101 | 251020_781536_16421763_0814 | 781536 | (not set) | (not set) | 38.907942832849 | -77.043644069348 | 6.2094 | 2025-10-20 08:36:49 | on_foot | 100 | 0.73314438473987 | |
| 71102 | 251020_784811_6461772_0757 | 784811 | (not set) | (not set) | 38.891469611276 | -77.063990624133 | 6.1599 | 2025-10-20 08:36:51 | unknown | 100 | 8.0869401950879 | |
| 71103 | 251020_788671_16496732_0829 | 788671 | (not set) | (not set) | 38.983245416623 | -76.9550910748 | 0.8321 | 2025-10-20 08:36:52 | in_vehicle | 100 | 2.5391829910503 | |
| 71104 | 251020_770021_16468678_0824 | 770021 | (not set) | (not set) | 38.986779967033 | -77.024389273318 | 1.376 | 2025-10-20 08:36:55 | unknown | 100 | 13.151894999419 | |
| 71105 | 251020_788776_16490874_0746 | 788776 | (not set) | (not set) | 38.621314335304 | -77.252107790283 | 24.8218 | 2025-10-20 08:36:55 | in_vehicle | 100 | 8.229992757964 | |
| 71106 | 251020_772498_16490104_0822 | 772498 | (not set) | (not set) | 38.898850124217 | -76.946980452803 | 2.8377 | 2025-10-20 08:36:55 | unknown | 100 | 3.9831197975806 | |
| 71107 | 251020_789050_16515795_0811 | 789050 | (not set) | (not set) | 38.960510877609 | -77.006157320208 | 6.6781 | 2025-10-20 08:36:56 | in_vehicle | 100 | 14.752295546595 | |
| 71108 | 251020_780809_16496249_0825 | 780809 | (not set) | (not set) | 38.952694728664 | -77.384577327454 | 0.9889 | 2025-10-20 08:36:56 | on_foot | 100 | 0.53644711078527 | |
| 71109 | 251020_780809_16496249_0825 | 780809 | (not set) | (not set) | 38.952694728664 | -77.384577327454 | 0.9889 | 2025-10-20 08:36:56 | on_foot | 100 | 0.53644711078527 | |
| 71110 | 251020_785331_6438355_0803 | 785331 | (not set) | (not set) | 38.883551146593 | -77.149910225884 | 15.4264 | 2025-10-20 08:36:57 | in_vehicle | 100 | 10.152261571611 | |
| 71111 | 251020_785331_6438355_0803 | 785331 | (not set) | (not set) | 38.883551146593 | -77.149910225884 | 15.4264 | 2025-10-20 08:36:57 | in_vehicle | 100 | 10.152261571611 | |
| 71112 | 251020_788403_16500126_0755 | 788403 | (not set) | (not set) | 39.117825201262 | -77.162637459627 | 23.508 | 2025-10-20 08:36:57 | in_vehicle | 100 | 14.528775917101 | |
| 71113 | 251020_769783_16441814_0752 | 769783 | (not set) | (not set) | 38.97520351445 | -77.017078527942 | 11.9303 | 2025-10-20 08:37:34 | on_foot | 100 | -0.44703925898772 | |
| 71114 | 251020_769783_16441814_0752 | 769783 | (not set) | (not set) | 38.97520351445 | -77.017078527942 | 11.9303 | 2025-10-20 08:37:34 | on_foot | 100 | -0.44703925898772 | |
| 71115 | 251020_761648_16500693_0824 | 761648 | (not set) | (not set) | 38.934905725521 | -76.984258135118 | 1.8726 | 2025-10-20 08:36:58 | on_bicycle | 100 | 1.3992328806316 | |
| 71116 | 251020_788642_16504316_0758 | 788642 | (not set) | (not set) | 38.905347225162 | -77.072571739176 | 3.8895 | 2025-10-20 08:36:59 | in_vehicle | 100 | 0 | |
| 71117 | 251020_788642_16504316_0758 | 788642 | (not set) | (not set) | 38.905347225162 | -77.072571739176 | 3.8895 | 2025-10-20 08:36:59 | in_vehicle | 100 | 0 | |
| 71118 | 251020_787489_6461772_0811 | 787489 | (not set) | (not set) | 38.918850091135 | -77.227063035486 | 7.8216 | 2025-10-20 08:36:59 | unknown | 100 | -0.44703925898772 | |
| 71119 | 251020_789472_16428277_0758 | 789472 | (not set) | (not set) | 39.06369 | -76.6406899 | 18.2926 | 2025-10-20 08:37:01 | in_vehicle | 100 | 4.9129614562751 | |
| 71120 | 251020_785765_16514290_0830 | 785765 | (not set) | (not set) | 39.615102642229 | -77.697279684768 | 3.7209 | 2025-10-20 08:37:03 | in_vehicle | 100 | 6.7502928107146 |